NCAR-RAP Real-Time Weather Data

Output produced by METARs form (27 July 2017  18:42 UTC)
found at http://weather.rap.ucar.edu/surface/
 
Conditions at: KMCF observed 27 July 2017  17:58 UTC
Temperature: 32.9°C (91°F)
Dewpoint: 27.7°C (82°F) [RH = 74%]
Pressure (altimeter): 30.01 inches Hg (1016.3 mb)
[Sea-level pressure: 1016.5 mb]
Winds: from the SW (220 degrees) at 10 MPH (9 knots; 4.7 m/s)
Visibility: 10 or more miles (16+ km)
Ceiling: at least 12,000 feet AGL
Clouds: few clouds at 17000 feet AGL
scattered clouds at 20000 feet AGL
Present Weather:
SOME DATA ABOVE MAY BE INACCURATE!!!
"$" is an indication the sensor requires maintenance
KMCF 271758Z AUTO 22009KT 10SM FEW170 SCT200 33/28 A3001 RMK AO2 LTG DSNT E-SE SLP165 60000 T03290277 10334 20273 57011 $

Conditions at: KMCF observed 27 July 2017  16:58 UTC
Temperature: 32.7°C (91°F)
Dewpoint: 27.8°C (82°F) [RH = 76%]
Pressure (altimeter): 30.03 inches Hg (1017.0 mb)
[Sea-level pressure: 1017.2 mb]
Winds: from the SSW (200 degrees) at 8 MPH (7 knots; 3.6 m/s)
Visibility: 10 or more miles (16+ km)
Ceiling: at least 12,000 feet AGL
Clouds: few clouds at 18000 feet AGL
Present Weather:
SOME DATA ABOVE MAY BE INACCURATE!!!
"$" is an indication the sensor requires maintenance
KMCF 271658Z AUTO 20007KT 10SM FEW180 33/28 A3003 RMK AO2 DZB25E31 SLP172 P0000 T03270278 $

Conditions at: KMCF observed 27 July 2017  15:58 UTC
Temperature: 32.9°C (91°F)
Dewpoint: 27.4°C (81°F) [RH = 73%]
Pressure (altimeter): 30.04 inches Hg (1017.4 mb)
[Sea-level pressure: 1017.5 mb]
Winds: from the SSW (200 degrees) at 5 MPH (4 knots; 2.1 m/s)
Visibility: 10 or more miles (16+ km)
Ceiling: at least 12,000 feet AGL
Clouds: sky clear below 12,000 feet AGL
Present Weather:
SOME DATA ABOVE MAY BE INACCURATE!!!
"$" is an indication the sensor requires maintenance
KMCF 271558Z AUTO 20004KT 10SM CLR 33/27 A3004 RMK AO2 SLP175 T03290274 $

Conditions at: KMCF observed 27 July 2017  14:58 UTC
Temperature: 32.1°C (90°F)
Dewpoint: 27.5°C (82°F) [RH = 77%]
Pressure (altimeter): 30.04 inches Hg (1017.4 mb)
[Sea-level pressure: 1017.5 mb]
Winds: from the SSW (200 degrees) at 5 MPH (4 knots; 2.1 m/s)
Visibility: 10 or more miles (16+ km)
Ceiling: at least 12,000 feet AGL
Clouds: sky clear below 12,000 feet AGL
Present Weather:
SOME DATA ABOVE MAY BE INACCURATE!!!
"$" is an indication the sensor requires maintenance
KMCF 271458Z AUTO 20004KT 10SM CLR 32/28 A3004 RMK AO2 SLP175 60000 T03210275 50003 $

Conditions at: KMCF observed 27 July 2017  13:58 UTC
Temperature: 30.3°C (87°F)
Dewpoint: 27.2°C (81°F) [RH = 84%]
Pressure (altimeter): 30.04 inches Hg (1017.4 mb)
[Sea-level pressure: 1017.5 mb]
Winds: from the SSW (210 degrees) at 7 MPH (6 knots; 3.1 m/s)
Visibility: 10 or more miles (16+ km)
Ceiling: at least 12,000 feet AGL
Clouds: sky clear below 12,000 feet AGL
Present Weather:
SOME DATA ABOVE MAY BE INACCURATE!!!
"$" is an indication the sensor requires maintenance
KMCF 271358Z AUTO 21006KT 10SM CLR 30/27 A3004 RMK AO2 SLP175 T03030272 $

Conditions at: KMCF observed 27 July 2017  12:58 UTC
Temperature: 28.6°C (83°F)
Dewpoint: 26.7°C (80°F) [RH = 90%]
Pressure (altimeter): 30.05 inches Hg (1017.7 mb)
[Sea-level pressure: 1017.9 mb]
Winds: from the S (180 degrees) at 7 MPH (6 knots; 3.1 m/s)
Visibility: 10 or more miles (16+ km)
Ceiling: at least 12,000 feet AGL
Clouds: sky clear below 12,000 feet AGL
Present Weather:
SOME DATA ABOVE MAY BE INACCURATE!!!
"$" is an indication the sensor requires maintenance
KMCF 271258Z AUTO 18006KT 10SM CLR 29/27 A3005 RMK AO2 DZB1158E1159 SLP179 P0000 T02860267 $

Conditions at: KMCF observed 27 July 2017  11:58 UTC
Temperature: 27.0°C (81°F)
Dewpoint: 27.0°C (81°F) [RH = 100%]
Pressure (altimeter): 30.03 inches Hg (1017.0 mb)
[Sea-level pressure: 1017.2 mb]
Winds: from the SSE (160 degrees) at 5 MPH (4 knots; 2.1 m/s)
Visibility: 10 or more miles (16+ km)
Ceiling: at least 12,000 feet AGL
Clouds: sky clear below 12,000 feet AGL
Present Weather:
SOME DATA ABOVE MAY BE INACCURATE!!!
"$" is an indication the sensor requires maintenance
KMCF 271158Z AUTO 16004KT 10SM CLR 27/27 A3003 RMK AO2 LTG DSNT S-SW DZB51 SLP172 P0000 60000 T02700270 10273 20252 53007 $

Conditions at: KMCF observed 27 July 2017  10:58 UTC
Temperature: 25.2°C (77°F)
Dewpoint: 25.2°C (77°F) [RH = 100%]
Pressure (altimeter): 30.02 inches Hg (1016.7 mb)
[Sea-level pressure: 1016.9 mb]
Winds: from the E (90 degrees) at 3 MPH (3 knots; 1.6 m/s)
Visibility: 10 or more miles (16+ km)
Ceiling: at least 12,000 feet AGL
Clouds: scattered clouds at 7500 feet AGL
Present Weather:
SOME DATA ABOVE MAY BE INACCURATE!!!
"$" is an indication the sensor requires maintenance
KMCF 271058Z AUTO 09003KT 10SM SCT075 25/25 A3002 RMK AO2 SLP169 T02520252 $

Conditions at: KMCF observed 27 July 2017  09:58 UTC
Temperature: 25.4°C (78°F)
Dewpoint: 25.1°C (77°F) [RH = 98%]
Pressure (altimeter): 30.02 inches Hg (1016.7 mb)
[Sea-level pressure: 1016.9 mb]
Winds: calm
Visibility: 10 or more miles (16+ km)
Ceiling: at least 12,000 feet AGL
Clouds: sky clear below 12,000 feet AGL
Present Weather:
SOME DATA ABOVE MAY BE INACCURATE!!!
"$" is an indication the sensor requires maintenance
KMCF 270958Z AUTO 00000KT 10SM CLR 25/25 A3002 RMK AO2 SLP169 T02540251 $

Conditions at: KMCF observed 27 July 2017  08:58 UTC
Temperature: 26.5°C (80°F)
Dewpoint: 25.3°C (78°F) [RH = 93%]
Pressure (altimeter): 30.01 inches Hg (1016.3 mb)
[Sea-level pressure: 1016.5 mb]
Winds: calm
Visibility: 10 or more miles (16+ km)
Ceiling: at least 12,000 feet AGL
Clouds: sky clear below 12,000 feet AGL
Present Weather:
SOME DATA ABOVE MAY BE INACCURATE!!!
"$" is an indication the sensor requires maintenance
KMCF 270858Z AUTO 00000KT 10SM CLR 27/25 A3001 RMK AO2 SLP165 T02650253 55006 $

Conditions at: KMCF observed 27 July 2017  07:58 UTC
Temperature: 27.1°C (81°F)
Dewpoint: 26.3°C (79°F) [RH = 95%]
Pressure (altimeter): 30.01 inches Hg (1016.3 mb)
[Sea-level pressure: 1016.5 mb]
Winds: calm
Visibility: 10 or more miles (16+ km)
Ceiling: at least 12,000 feet AGL
Clouds: sky clear below 12,000 feet AGL
Present Weather:
SOME DATA ABOVE MAY BE INACCURATE!!!
"$" is an indication the sensor requires maintenance
KMCF 270758Z AUTO 00000KT 10SM CLR 27/26 A3001 RMK AO2 SLP165 T02710263 $

Conditions at: KMCF observed 27 July 2017  06:58 UTC
Temperature: 26.7°C (80°F)
Dewpoint: 26.4°C (80°F) [RH = 98%]
Pressure (altimeter): 30.01 inches Hg (1016.3 mb)
[Sea-level pressure: 1016.5 mb]
Winds: from the SSE (160 degrees) at 3 MPH (3 knots; 1.6 m/s)
Visibility: 10 or more miles (16+ km)
Ceiling: at least 12,000 feet AGL
Clouds: sky clear below 12,000 feet AGL
Present Weather:
SOME DATA ABOVE MAY BE INACCURATE!!!
"$" is an indication the sensor requires maintenance
KMCF 270658Z AUTO 16003KT 10SM CLR 27/26 A3001 RMK AO2 SLP165 T02670264 $

Conditions at: KMCF observed 27 July 2017  05:58 UTC
Temperature: 26.7°C (80°F)
Dewpoint: 26.5°C (80°F) [RH = 99%]
Pressure (altimeter): 30.03 inches Hg (1017.0 mb)
[Sea-level pressure: 1017.2 mb]
Winds: from the SE (140 degrees) at 3 MPH (3 knots; 1.6 m/s)
Visibility: 10 or more miles (16+ km)
Ceiling: 6000 feet AGL
Clouds: broken clouds at 6000 feet AGL
Present Weather:
SOME DATA ABOVE MAY BE INACCURATE!!!
"$" is an indication the sensor requires maintenance
KMCF 270558Z AUTO 14003KT 10SM BKN060 27/27 A3003 RMK AO2 SLP172 T02670265 10310 20264 55008 $

Conditions at: KMCF observed 27 July 2017  04:58 UTC
Temperature: 26.6°C (80°F)
Dewpoint: 25.7°C (78°F) [RH = 95%]
Pressure (altimeter): 30.05 inches Hg (1017.7 mb)
[Sea-level pressure: 1017.9 mb]
Winds: calm
Visibility: 10 or more miles (16+ km)
Ceiling: at least 12,000 feet AGL
Clouds: few clouds at 5000 feet AGL
scattered clouds at 7500 feet AGL
Present Weather:
SOME DATA ABOVE MAY BE INACCURATE!!!
"$" is an indication the sensor requires maintenance
KMCF 270458Z AUTO 00000KT 10SM FEW050 SCT075 27/26 A3005 RMK AO2 LTG DSNT SE SLP179 T02660257 403530243 $

Conditions at: KMCF observed 27 July 2017  03:58 UTC
Temperature: 27.8°C (82°F)
Dewpoint: 26.0°C (79°F) [RH = 90%]
Pressure (altimeter): 30.05 inches Hg (1017.7 mb)
[Sea-level pressure: 1017.9 mb]
Winds: calm
Visibility: 10 or more miles (16+ km)
Ceiling: at least 12,000 feet AGL
Clouds: sky clear below 12,000 feet AGL
Present Weather:
SOME DATA ABOVE MAY BE INACCURATE!!!
"$" is an indication the sensor requires maintenance
KMCF 270358Z AUTO 00000KT 10SM CLR 28/26 A3005 RMK AO2 SLP179 T02780260 $

Conditions at: KMCF observed 27 July 2017  02:58 UTC
Temperature: 28.5°C (83°F)
Dewpoint: 25.8°C (78°F) [RH = 85%]
Pressure (altimeter): 30.05 inches Hg (1017.7 mb)
[Sea-level pressure: 1017.9 mb]
Winds: from the NNW (340 degrees) at 6 MPH (5 knots; 2.6 m/s)
Visibility: 10 or more miles (16+ km)
Ceiling: at least 12,000 feet AGL
Clouds: few clouds at 5500 feet AGL
Present Weather:
SOME DATA ABOVE MAY BE INACCURATE!!!
"$" is an indication the sensor requires maintenance
KMCF 270258Z AUTO 34005KT 10SM FEW055 29/26 A3005 RMK AO2 SLP179 T02850258 53013 $

Conditions at: KMCF observed 27 July 2017  01:58 UTC
Temperature: 28.9°C (84°F)
Dewpoint: 25.0°C (77°F) [RH = 80%]
Pressure (altimeter): 30.02 inches Hg (1016.7 mb)
[Sea-level pressure: 1016.9 mb]
Winds: from the NW (320 degrees) at 8 MPH (7 knots; 3.6 m/s)
Visibility: 10 or more miles (16+ km)
Ceiling: at least 12,000 feet AGL
Clouds: sky clear below 12,000 feet AGL
Present Weather:
SOME DATA ABOVE MAY BE INACCURATE!!!
"$" is an indication the sensor requires maintenance
KMCF 270158Z AUTO 32007KT 10SM CLR 29/25 A3002 RMK AO2 SLP169 T02890250 $

Conditions at: KMCF observed 27 July 2017  00:58 UTC
Temperature: 29.5°C (85°F)
Dewpoint: 23.9°C (75°F) [RH = 72%]
Pressure (altimeter): 30.02 inches Hg (1016.7 mb)
[Sea-level pressure: 1016.9 mb]
Winds: from the NW (310 degrees) at 6 MPH (5 knots; 2.6 m/s)
Visibility: 10 or more miles (16+ km)
Ceiling: at least 12,000 feet AGL
Clouds: sky clear below 12,000 feet AGL
Present Weather:
SOME DATA ABOVE MAY BE INACCURATE!!!
"$" is an indication the sensor requires maintenance
KMCF 270058Z AUTO 31005KT 10SM CLR 30/24 A3002 RMK AO2 SLP169 T02950239 $

Conditions at: KMCF observed 26 July 2017  23:58 UTC
Temperature: 31.2°C (88°F)
Dewpoint: 23.6°C (74°F) [RH = 64%]
Pressure (altimeter): 30.01 inches Hg (1016.3 mb)
[Sea-level pressure: 1016.5 mb]
Winds: from the WNW (300 degrees) at 6 MPH (5 knots; 2.6 m/s)
Visibility: 10 or more miles (16+ km)
Ceiling: at least 12,000 feet AGL
Clouds: sky clear below 12,000 feet AGL
Present Weather:
SOME DATA ABOVE MAY BE INACCURATE!!!
"$" is an indication the sensor requires maintenance
KMCF 262358Z AUTO 30005KT 10SM CLR 31/24 A3001 RMK AO2 SLP165 T03120236 10353 20312 55003 $

Conditions at: KMCF observed 26 July 2017  22:58 UTC
Temperature: 32.5°C (90°F)
Dewpoint: 23.8°C (75°F) [RH = 60%]
Pressure (altimeter): 30.00 inches Hg (1016.0 mb)
[Sea-level pressure: 1016.2 mb]
Winds: from the WNW (300 degrees) at 9 MPH (8 knots; 4.2 m/s)
Visibility: 10 or more miles (16+ km)
Ceiling: at least 12,000 feet AGL
Clouds: sky clear below 12,000 feet AGL
Present Weather:
SOME DATA ABOVE MAY BE INACCURATE!!!
"$" is an indication the sensor requires maintenance
KMCF 262258Z AUTO 30008KT 10SM CLR 33/24 A3000 RMK AO2 SLP162 T03250238 $

Conditions at: KMCF observed 26 July 2017  21:58 UTC
Temperature: 33.2°C (92°F)
Dewpoint: 24.3°C (76°F) [RH = 60%]
Pressure (altimeter): 30.01 inches Hg (1016.3 mb)
[Sea-level pressure: 1016.5 mb]
Winds: from the WNW (300 degrees) at 7 MPH (6 knots; 3.1 m/s)
Visibility: 10 or more miles (16+ km)
Ceiling: at least 12,000 feet AGL
Clouds: sky clear below 12,000 feet AGL
Present Weather:
SOME DATA ABOVE MAY BE INACCURATE!!!
"$" is an indication the sensor requires maintenance
KMCF 262158Z AUTO 30006KT 10SM CLR 33/24 A3001 RMK AO2 LTG DSNT E SLP165 T03320243 $

Conditions at: KMCF observed 26 July 2017  20:58 UTC
Temperature: 33.8°C (93°F)
Dewpoint: 23.8°C (75°F) [RH = 56%]
Pressure (altimeter): 30.02 inches Hg (1016.7 mb)
[Sea-level pressure: 1016.9 mb]
Winds: from the WNW (300 degrees) at 8 MPH (7 knots; 3.6 m/s)
Visibility: 10 or more miles (16+ km)
Ceiling: at least 12,000 feet AGL
Clouds: sky clear below 12,000 feet AGL
Present Weather:
SOME DATA ABOVE MAY BE INACCURATE!!!
"$" is an indication the sensor requires maintenance
KMCF 262058Z AUTO 30007KT 10SM CLR 34/24 A3002 RMK AO2 SLP169 T03380238 57023 $

Conditions at: KMCF observed 26 July 2017  19:58 UTC
Temperature: 34.7°C (94°F)
Dewpoint: 24.1°C (75°F) [RH = 54%]
Pressure (altimeter): 30.04 inches Hg (1017.4 mb)
[Sea-level pressure: 1017.5 mb]
Winds: from the NW (310 degrees) at 7 MPH (6 knots; 3.1 m/s)
Visibility: 10 or more miles (16+ km)
Ceiling: at least 12,000 feet AGL
Clouds: few clouds at 17000 feet AGL
Present Weather:
SOME DATA ABOVE MAY BE INACCURATE!!!
"$" is an indication the sensor requires maintenance
KMCF 261958Z AUTO 31006KT 10SM FEW170 35/24 A3004 RMK AO2 SLP175 T03470241 $

Conditions at: KMCF observed 26 July 2017  18:58 UTC
Temperature: 35.3°C (96°F)
Dewpoint: 23.8°C (75°F) [RH = 52%]
Pressure (altimeter): 30.07 inches Hg (1018.4 mb)
[Sea-level pressure: 1018.6 mb]
Winds: from the W (280 degrees) at 6 MPH (5 knots; 2.6 m/s)
Visibility: 10 or more miles (16+ km)
Ceiling: at least 12,000 feet AGL
Clouds: few clouds at 17000 feet AGL
scattered clouds at 21000 feet AGL
Present Weather:
SOME DATA ABOVE MAY BE INACCURATE!!!
"$" is an indication the sensor requires maintenance
KMCF 261858Z AUTO 28005KT 10SM FEW170 SCT210 35/24 A3007 RMK AO2 SLP186 T03530238 $